sensor_id;sensor_type;location;lat;lon;timestamp;temperature;humidity
29501;DHT22;16450;50.288;10.966;2023-06-10T00:01:18;18.90;53.90
29501;DHT22;16450;50.288;10.966;2023-06-10T00:04:20;18.80;54.00
29501;DHT22;16450;50.288;10.966;2023-06-10T00:07:22;18.70;54.10
29501;DHT22;16450;50.288;10.966;2023-06-10T00:10:24;18.60;54.30
29501;DHT22;16450;50.288;10.966;2023-06-10T00:13:27;18.50;54.50
29501;DHT22;16450;50.288;10.966;2023-06-10T00:16:29;18.50;54.80
29501;DHT22;16450;50.288;10.966;2023-06-10T00:19:32;18.40;55.00
29501;DHT22;16450;50.288;10.966;2023-06-10T00:22:35;18.30;55.00
29501;DHT22;16450;50.288;10.966;2023-06-10T00:25:37;18.30;55.30
29501;DHT22;16450;50.288;10.966;2023-06-10T00:28:39;18.20;55.60
29501;DHT22;16450;50.288;10.966;2023-06-10T00:31:41;18.20;55.80
29501;DHT22;16450;50.288;10.966;2023-06-10T00:34:43;18.10;56.00
29501;DHT22;16450;50.288;10.966;2023-06-10T00:37:45;18.00;56.10
29501;DHT22;16450;50.288;10.966;2023-06-10T00:40:47;18.00;56.30
29501;DHT22;16450;50.288;10.966;2023-06-10T00:43:49;17.90;56.40
29501;DHT22;16450;50.288;10.966;2023-06-10T00:46:51;17.80;56.60
29501;DHT22;16450;50.288;10.966;2023-06-10T00:49:54;17.80;56.90
29501;DHT22;16450;50.288;10.966;2023-06-10T00:52:58;17.70;57.10
29501;DHT22;16450;50.288;10.966;2023-06-10T00:56:00;17.70;57.20
29501;DHT22;16450;50.288;10.966;2023-06-10T00:59:02;17.60;57.50
29501;DHT22;16450;50.288;10.966;2023-06-10T01:02:04;17.60;57.70
29501;DHT22;16450;50.288;10.966;2023-06-10T01:05:08;17.50;57.90
29501;DHT22;16450;50.288;10.966;2023-06-10T01:15:21;17.30;59.20
29501;DHT22;16450;50.288;10.966;2023-06-10T01:18:30;17.30;58.50
29501;DHT22;16450;50.288;10.966;2023-06-10T01:21:32;17.20;59.10
29501;DHT22;16450;50.288;10.966;2023-06-10T01:24:36;17.20;58.80
29501;DHT22;16450;50.288;10.966;2023-06-10T01:27:39;17.10;59.00
29501;DHT22;16450;50.288;10.966;2023-06-10T01:37:49;16.90;60.50
29501;DHT22;16450;50.288;10.966;2023-06-10T01:40:53;16.90;59.70
29501;DHT22;16450;50.288;10.966;2023-06-10T01:43:56;16.90;60.10
29501;DHT22;16450;50.288;10.966;2023-06-10T01:46:57;16.80;60.00
29501;DHT22;16450;50.288;10.966;2023-06-10T01:49:59;16.80;60.30
29501;DHT22;16450;50.288;10.966;2023-06-10T01:53:03;16.80;60.50
29501;DHT22;16450;50.288;10.966;2023-06-10T01:56:05;16.70;60.60
29501;DHT22;16450;50.288;10.966;2023-06-10T01:59:07;16.70;60.90
29501;DHT22;16450;50.288;10.966;2023-06-10T02:02:09;16.60;60.90
29501;DHT22;16450;50.288;10.966;2023-06-10T02:05:11;16.60;61.10
29501;DHT22;16450;50.288;10.966;2023-06-10T02:08:13;16.60;61.40
29501;DHT22;16450;50.288;10.966;2023-06-10T02:11:15;16.50;61.50
29501;DHT22;16450;50.288;10.966;2023-06-10T02:14:17;16.40;61.70
29501;DHT22;16450;50.288;10.966;2023-06-10T02:17:19;16.40;61.90
29501;DHT22;16450;50.288;10.966;2023-06-10T02:20:21;16.30;62.10
29501;DHT22;16450;50.288;10.966;2023-06-10T02:23:23;16.30;62.20
29501;DHT22;16450;50.288;10.966;2023-06-10T02:26:25;16.20;62.30
29501;DHT22;16450;50.288;10.966;2023-06-10T02:29:27;16.20;62.60
29501;DHT22;16450;50.288;10.966;2023-06-10T02:32:29;16.10;62.70
29501;DHT22;16450;50.288;10.966;2023-06-10T02:35:31;16.00;62.80
29501;DHT22;16450;50.288;10.966;2023-06-10T02:38:33;16.00;63.00
29501;DHT22;16450;50.288;10.966;2023-06-10T02:41:35;16.00;63.00
29501;DHT22;16450;50.288;10.966;2023-06-10T02:44:38;15.90;63.20
29501;DHT22;16450;50.288;10.966;2023-06-10T02:47:41;15.90;63.40
29501;DHT22;16450;50.288;10.966;2023-06-10T02:50:43;15.80;63.40
29501;DHT22;16450;50.288;10.966;2023-06-10T02:53:45;15.70;63.50
29501;DHT22;16450;50.288;10.966;2023-06-10T02:56:47;15.70;63.70
29501;DHT22;16450;50.288;10.966;2023-06-10T02:59:49;15.60;63.70
29501;DHT22;16450;50.288;10.966;2023-06-10T03:02:52;15.50;64.70
29501;DHT22;16450;50.288;10.966;2023-06-10T03:05:59;15.50;64.40
29501;DHT22;16450;50.288;10.966;2023-06-10T03:09:02;15.40;64.40
29501;DHT22;16450;50.288;10.966;2023-06-10T03:12:06;15.40;64.80
29501;DHT22;16450;50.288;10.966;2023-06-10T03:15:09;15.30;64.90
29501;DHT22;16450;50.288;10.966;2023-06-10T03:18:11;15.20;64.90
29501;DHT22;16450;50.288;10.966;2023-06-10T03:21:14;15.20;65.20
29501;DHT22;16450;50.288;10.966;2023-06-10T03:24:16;15.10;65.30
29501;DHT22;16450;50.288;10.966;2023-06-10T03:27:18;15.10;65.70
29501;DHT22;16450;50.288;10.966;2023-06-10T03:30:21;15.10;66.10
29501;DHT22;16450;50.288;10.966;2023-06-10T03:33:22;15.10;66.20
29501;DHT22;16450;50.288;10.966;2023-06-10T03:36:24;15.00;66.70
29501;DHT22;16450;50.288;10.966;2023-06-10T03:39:30;15.00;66.80
29501;DHT22;16450;50.288;10.966;2023-06-10T03:42:32;15.00;67.10
29501;DHT22;16450;50.288;10.966;2023-06-10T03:45:34;15.00;67.30
29501;DHT22;16450;50.288;10.966;2023-06-10T03:48:36;15.00;67.50
29501;DHT22;16450;50.288;10.966;2023-06-10T03:51:38;15.00;67.70
29501;DHT22;16450;50.288;10.966;2023-06-10T03:54:40;15.00;68.00
29501;DHT22;16450;50.288;10.966;2023-06-10T03:57:43;15.00;68.20
29501;DHT22;16450;50.288;10.966;2023-06-10T04:00:45;15.00;68.50
29501;DHT22;16450;50.288;10.966;2023-06-10T04:03:47;15.00;68.80
29501;DHT22;16450;50.288;10.966;2023-06-10T04:06:50;15.10;69.40
29501;DHT22;16450;50.288;10.966;2023-06-10T04:09:52;15.10;69.40
29501;DHT22;16450;50.288;10.966;2023-06-10T04:12:55;15.10;69.40
29501;DHT22;16450;50.288;10.966;2023-06-10T04:15:57;15.10;69.50
29501;DHT22;16450;50.288;10.966;2023-06-10T04:19:00;15.10;69.80
29501;DHT22;16450;50.288;10.966;2023-06-10T04:22:02;15.20;70.20
29501;DHT22;16450;50.288;10.966;2023-06-10T04:25:05;15.20;70.50
29501;DHT22;16450;50.288;10.966;2023-06-10T04:28:10;15.20;70.50
29501;DHT22;16450;50.288;10.966;2023-06-10T04:31:11;15.30;70.70
29501;DHT22;16450;50.288;10.966;2023-06-10T04:34:14;15.20;70.50
29501;DHT22;16450;50.288;10.966;2023-06-10T04:37:16;15.40;71.00
29501;DHT22;16450;50.288;10.966;2023-06-10T04:40:22;15.50;71.30
29501;DHT22;16450;50.288;10.966;2023-06-10T04:43:25;15.50;71.40
29501;DHT22;16450;50.288;10.966;2023-06-10T04:46:30;15.60;72.10
29501;DHT22;16450;50.288;10.966;2023-06-10T04:49:33;15.70;73.00
29501;DHT22;16450;50.288;10.966;2023-06-10T04:52:39;15.90;73.20
29501;DHT22;16450;50.288;10.966;2023-06-10T04:55:43;16.00;73.00
29501;DHT22;16450;50.288;10.966;2023-06-10T04:58:45;16.20;73.20
29501;DHT22;16450;50.288;10.966;2023-06-10T05:01:48;16.30;73.10
29501;DHT22;16450;50.288;10.966;2023-06-10T05:04:50;16.50;74.60
29501;DHT22;16450;50.288;10.966;2023-06-10T05:07:52;16.80;76.90
29501;DHT22;16450;50.288;10.966;2023-06-10T05:10:53;17.30;78.80
29501;DHT22;16450;50.288;10.966;2023-06-10T05:13:55;18.00;80.30
29501;DHT22;16450;50.288;10.966;2023-06-10T05:16:58;18.70;80.90
29501;DHT22;16450;50.288;10.966;2023-06-10T05:20:01;19.50;80.40
29501;DHT22;16450;50.288;10.966;2023-06-10T05:23:02;20.30;80.00
29501;DHT22;16450;50.288;10.966;2023-06-10T05:26:04;21.00;79.10
29501;DHT22;16450;50.288;10.966;2023-06-10T05:29:07;21.80;77.90
29501;DHT22;16450;50.288;10.966;2023-06-10T05:32:09;22.40;76.40
29501;DHT22;16450;50.288;10.966;2023-06-10T05:35:12;23.00;74.90
29501;DHT22;16450;50.288;10.966;2023-06-10T05:38:14;23.60;73.20
29501;DHT22;16450;50.288;10.966;2023-06-10T05:41:16;24.00;71.90
29501;DHT22;16450;50.288;10.966;2023-06-10T05:44:18;24.60;70.50
29501;DHT22;16450;50.288;10.966;2023-06-10T05:47:20;24.90;69.30
29501;DHT22;16450;50.288;10.966;2023-06-10T05:50:26;25.30;67.80
29501;DHT22;16450;50.288;10.966;2023-06-10T05:53:28;25.70;66.30
29501;DHT22;16450;50.288;10.966;2023-06-10T05:56:30;26.00;64.90
29501;DHT22;16450;50.288;10.966;2023-06-10T05:59:35;26.30;64.00
29501;DHT22;16450;50.288;10.966;2023-06-10T06:02:37;26.70;62.70
29501;DHT22;16450;50.288;10.966;2023-06-10T06:05:39;26.90;60.90
29501;DHT22;16450;50.288;10.966;2023-06-10T06:08:41;27.10;59.80
29501;DHT22;16450;50.288;10.966;2023-06-10T06:11:43;27.40;59.10
29501;DHT22;16450;50.288;10.966;2023-06-10T06:14:44;27.60;58.50
29501;DHT22;16450;50.288;10.966;2023-06-10T06:17:46;27.90;57.60
29501;DHT22;16450;50.288;10.966;2023-06-10T06:20:49;28.20;56.90
29501;DHT22;16450;50.288;10.966;2023-06-10T06:23:51;28.40;56.30
29501;DHT22;16450;50.288;10.966;2023-06-10T06:26:53;28.70;55.90
29501;DHT22;16450;50.288;10.966;2023-06-10T06:29:55;28.90;54.70
29501;DHT22;16450;50.288;10.966;2023-06-10T06:32:57;29.10;53.50
29501;DHT22;16450;50.288;10.966;2023-06-10T06:35:59;29.10;52.30
29501;DHT22;16450;50.288;10.966;2023-06-10T06:39:04;29.10;51.50
29501;DHT22;16450;50.288;10.966;2023-06-10T06:42:06;28.80;50.40
29501;DHT22;16450;50.288;10.966;2023-06-10T06:45:09;28.50;50.40
29501;DHT22;16450;50.288;10.966;2023-06-10T06:48:12;28.20;50.20
29501;DHT22;16450;50.288;10.966;2023-06-10T06:51:14;27.90;51.00
29501;DHT22;16450;50.288;10.966;2023-06-10T06:54:16;27.70;51.80
29501;DHT22;16450;50.288;10.966;2023-06-10T06:57:18;27.80;52.30
29501;DHT22;16450;50.288;10.966;2023-06-10T07:00:20;28.00;52.40
29501;DHT22;16450;50.288;10.966;2023-06-10T07:03:22;28.20;51.90
29501;DHT22;16450;50.288;10.966;2023-06-10T07:06:24;28.30;51.40
29501;DHT22;16450;50.288;10.966;2023-06-10T07:09:27;28.40;51.10
29501;DHT22;16450;50.288;10.966;2023-06-10T07:12:29;28.60;51.00
29501;DHT22;16450;50.288;10.966;2023-06-10T07:15:31;28.70;51.40
29501;DHT22;16450;50.288;10.966;2023-06-10T07:18:34;29.00;51.20
29501;DHT22;16450;50.288;10.966;2023-06-10T07:21:36;29.20;50.80
29501;DHT22;16450;50.288;10.966;2023-06-10T07:24:38;29.40;50.20
29501;DHT22;16450;50.288;10.966;2023-06-10T07:27:40;29.60;49.80
29501;DHT22;16450;50.288;10.966;2023-06-10T07:30:42;29.80;49.00
29501;DHT22;16450;50.288;10.966;2023-06-10T07:33:44;29.90;48.50
29501;DHT22;16450;50.288;10.966;2023-06-10T07:36:46;29.90;48.40
29501;DHT22;16450;50.288;10.966;2023-06-10T07:39:47;30.10;48.00
29501;DHT22;16450;50.288;10.966;2023-06-10T07:42:50;30.10;47.60
29501;DHT22;16450;50.288;10.966;2023-06-10T07:45:52;30.20;47.20
29501;DHT22;16450;50.288;10.966;2023-06-10T07:48:54;30.20;47.20
29501;DHT22;16450;50.288;10.966;2023-06-10T07:51:56;30.20;46.80
29501;DHT22;16450;50.288;10.966;2023-06-10T07:54:58;30.20;46.70
29501;DHT22;16450;50.288;10.966;2023-06-10T07:58:02;30.30;46.50
29501;DHT22;16450;50.288;10.966;2023-06-10T08:01:04;30.30;46.40
29501;DHT22;16450;50.288;10.966;2023-06-10T08:04:06;30.30;46.30
29501;DHT22;16450;50.288;10.966;2023-06-10T08:07:08;30.30;46.60
29501;DHT22;16450;50.288;10.966;2023-06-10T08:10:10;30.30;46.10
29501;DHT22;16450;50.288;10.966;2023-06-10T08:13:12;30.30;46.00
29501;DHT22;16450;50.288;10.966;2023-06-10T08:16:14;30.40;46.90
29501;DHT22;16450;50.288;10.966;2023-06-10T08:19:16;30.50;46.50
29501;DHT22;16450;50.288;10.966;2023-06-10T08:22:18;30.60;45.70
29501;DHT22;16450;50.288;10.966;2023-06-10T08:25:20;30.70;45.60
29501;DHT22;16450;50.288;10.966;2023-06-10T08:28:23;30.80;45.60
29501;DHT22;16450;50.288;10.966;2023-06-10T08:31:25;30.90;45.70
29501;DHT22;16450;50.288;10.966;2023-06-10T08:34:27;30.90;44.60
29501;DHT22;16450;50.288;10.966;2023-06-10T08:37:33;31.00;44.20
29501;DHT22;16450;50.288;10.966;2023-06-10T08:40:35;30.90;43.90
29501;DHT22;16450;50.288;10.966;2023-06-10T08:43:43;31.00;43.70
29501;DHT22;16450;50.288;10.966;2023-06-10T08:46:47;30.90;43.00
29501;DHT22;16450;50.288;10.966;2023-06-10T08:49:49;31.00;43.40
29501;DHT22;16450;50.288;10.966;2023-06-10T08:52:54;31.00;44.10
29501;DHT22;16450;50.288;10.966;2023-06-10T08:56:00;31.00;43.80
29501;DHT22;16450;50.288;10.966;2023-06-10T08:59:03;31.00;43.20
29501;DHT22;16450;50.288;10.966;2023-06-10T09:02:07;31.10;43.50
29501;DHT22;16450;50.288;10.966;2023-06-10T09:05:10;31.00;42.80
29501;DHT22;16450;50.288;10.966;2023-06-10T09:08:13;31.00;43.30
29501;DHT22;16450;50.288;10.966;2023-06-10T09:11:15;31.00;42.70
29501;DHT22;16450;50.288;10.966;2023-06-10T09:14:20;31.00;42.50
29501;DHT22;16450;50.288;10.966;2023-06-10T09:17:22;31.00;42.10
29501;DHT22;16450;50.288;10.966;2023-06-10T09:20:24;31.00;42.00
29501;DHT22;16450;50.288;10.966;2023-06-10T09:23:26;30.90;42.50
29501;DHT22;16450;50.288;10.966;2023-06-10T09:26:29;31.00;42.40
29501;DHT22;16450;50.288;10.966;2023-06-10T09:29:54;31.00;42.80
29501;DHT22;16450;50.288;10.966;2023-06-10T09:32:57;31.10;42.10
29501;DHT22;16450;50.288;10.966;2023-06-10T09:36:02;31.10;42.20
29501;DHT22;16450;50.288;10.966;2023-06-10T09:39:05;31.10;42.10
29501;DHT22;16450;50.288;10.966;2023-06-10T09:42:19;31.10;42.30
29501;DHT22;16450;50.288;10.966;2023-06-10T09:45:22;31.20;42.00
29501;DHT22;16450;50.288;10.966;2023-06-10T09:48:25;31.20;42.30
29501;DHT22;16450;50.288;10.966;2023-06-10T09:51:27;31.30;41.50
29501;DHT22;16450;50.288;10.966;2023-06-10T09:54:32;31.20;41.10
29501;DHT22;16450;50.288;10.966;2023-06-10T09:57:34;31.00;40.60
29501;DHT22;16450;50.288;10.966;2023-06-10T10:00:38;30.90;40.90
29501;DHT22;16450;50.288;10.966;2023-06-10T10:03:47;30.70;41.20
29501;DHT22;16450;50.288;10.966;2023-06-10T10:06:49;30.60;41.20
29501;DHT22;16450;50.288;10.966;2023-06-10T10:09:52;30.50;41.50
29501;DHT22;16450;50.288;10.966;2023-06-10T10:12:55;30.50;41.60
29501;DHT22;16450;50.288;10.966;2023-06-10T10:16:01;30.50;41.70
29501;DHT22;16450;50.288;10.966;2023-06-10T10:19:10;30.50;41.60
29501;DHT22;16450;50.288;10.966;2023-06-10T10:22:25;30.60;42.50
29501;DHT22;16450;50.288;10.966;2023-06-10T10:25:34;30.60;41.30
29501;DHT22;16450;50.288;10.966;2023-06-10T10:29:24;30.50;41.70
29501;DHT22;16450;50.288;10.966;2023-06-10T10:32:43;30.50;41.40
29501;DHT22;16450;50.288;10.966;2023-06-10T10:35:47;30.50;41.10
29501;DHT22;16450;50.288;10.966;2023-06-10T10:38:50;30.50;41.30
29501;DHT22;16450;50.288;10.966;2023-06-10T10:41:54;30.50;41.50
29501;DHT22;16450;50.288;10.966;2023-06-10T10:45:01;30.50;41.40
29501;DHT22;16450;50.288;10.966;2023-06-10T10:48:08;30.40;41.00
29501;DHT22;16450;50.288;10.966;2023-06-10T10:51:16;30.40;40.10
29501;DHT22;16450;50.288;10.966;2023-06-10T10:54:17;30.30;40.30
29501;DHT22;16450;50.288;10.966;2023-06-10T10:57:21;30.30;40.00
29501;DHT22;16450;50.288;10.966;2023-06-10T11:00:28;30.20;40.40
29501;DHT22;16450;50.288;10.966;2023-06-10T11:03:42;30.10;40.70
29501;DHT22;16450;50.288;10.966;2023-06-10T11:06:54;30.10;41.10
29501;DHT22;16450;50.288;10.966;2023-06-10T11:10:07;30.10;42.00
29501;DHT22;16450;50.288;10.966;2023-06-10T11:13:13;30.20;41.50
29501;DHT22;16450;50.288;10.966;2023-06-10T11:16:19;30.20;41.30
29501;DHT22;16450;50.288;10.966;2023-06-10T11:19:32;30.30;41.50
29501;DHT22;16450;50.288;10.966;2023-06-10T11:22:58;30.40;40.70
29501;DHT22;16450;50.288;10.966;2023-06-10T11:29:14;30.40;40.70
29501;DHT22;16450;50.288;10.966;2023-06-10T11:32:17;30.30;41.20
29501;DHT22;16450;50.288;10.966;2023-06-10T11:35:19;30.30;41.40
29501;DHT22;16450;50.288;10.966;2023-06-10T11:38:23;30.30;41.80
29501;DHT22;16450;50.288;10.966;2023-06-10T11:41:26;30.40;42.20
29501;DHT22;16450;50.288;10.966;2023-06-10T11:44:28;30.50;42.50
29501;DHT22;16450;50.288;10.966;2023-06-10T11:47:31;30.60;41.90
29501;DHT22;16450;50.288;10.966;2023-06-10T11:50:33;30.60;41.80
29501;DHT22;16450;50.288;10.966;2023-06-10T11:53:35;30.60;42.00
29501;DHT22;16450;50.288;10.966;2023-06-10T11:56:37;30.70;41.90
29501;DHT22;16450;50.288;10.966;2023-06-10T11:59:39;30.70;42.00
29501;DHT22;16450;50.288;10.966;2023-06-10T12:02:42;30.70;42.00
29501;DHT22;16450;50.288;10.966;2023-06-10T12:05:57;30.80;42.60
29501;DHT22;16450;50.288;10.966;2023-06-10T12:09:00;30.90;42.40
29501;DHT22;16450;50.288;10.966;2023-06-10T12:12:22;30.80;42.00
29501;DHT22;16450;50.288;10.966;2023-06-10T12:15:24;30.70;42.00
29501;DHT22;16450;50.288;10.966;2023-06-10T12:18:27;30.60;42.10
29501;DHT22;16450;50.288;10.966;2023-06-10T12:21:31;30.50;43.30
29501;DHT22;16450;50.288;10.966;2023-06-10T12:24:46;30.50;42.80
29501;DHT22;16450;50.288;10.966;2023-06-10T12:28:01;30.60;42.50
29501;DHT22;16450;50.288;10.966;2023-06-10T12:31:09;30.40;42.30
29501;DHT22;16450;50.288;10.966;2023-06-10T12:34:17;30.20;42.30
29501;DHT22;16450;50.288;10.966;2023-06-10T12:37:19;30.00;42.70
29501;DHT22;16450;50.288;10.966;2023-06-10T12:40:29;29.80;43.40
29501;DHT22;16450;50.288;10.966;2023-06-10T12:43:33;29.70;43.70
29501;DHT22;16450;50.288;10.966;2023-06-10T12:46:39;29.50;43.70
29501;DHT22;16450;50.288;10.966;2023-06-10T12:49:41;29.30;43.80
29501;DHT22;16450;50.288;10.966;2023-06-10T12:52:43;29.00;43.70
29501;DHT22;16450;50.288;10.966;2023-06-10T12:55:45;28.60;44.10
29501;DHT22;16450;50.288;10.966;2023-06-10T12:58:47;28.30;43.70
29501;DHT22;16450;50.288;10.966;2023-06-10T13:01:51;28.00;44.20
29501;DHT22;16450;50.288;10.966;2023-06-10T13:04:53;27.70;44.40
29501;DHT22;16450;50.288;10.966;2023-06-10T13:07:55;27.40;45.20
29501;DHT22;16450;50.288;10.966;2023-06-10T13:10:58;27.20;45.80
29501;DHT22;16450;50.288;10.966;2023-06-10T13:14:02;27.00;46.70
29501;DHT22;16450;50.288;10.966;2023-06-10T13:17:05;26.90;47.40
29501;DHT22;16450;50.288;10.966;2023-06-10T13:20:10;26.80;47.40
29501;DHT22;16450;50.288;10.966;2023-06-10T13:23:12;26.80;47.90
29501;DHT22;16450;50.288;10.966;2023-06-10T13:26:15;26.80;47.90
29501;DHT22;16450;50.288;10.966;2023-06-10T13:29:20;26.80;47.90
29501;DHT22;16450;50.288;10.966;2023-06-10T13:32:22;26.90;47.90
29501;DHT22;16450;50.288;10.966;2023-06-10T13:35:23;26.90;48.20
29501;DHT22;16450;50.288;10.966;2023-06-10T13:38:26;26.90;48.70
29501;DHT22;16450;50.288;10.966;2023-06-10T13:41:28;27.00;48.90
29501;DHT22;16450;50.288;10.966;2023-06-10T13:44:30;27.20;49.20
29501;DHT22;16450;50.288;10.966;2023-06-10T13:47:35;27.40;49.50
29501;DHT22;16450;50.288;10.966;2023-06-10T13:50:37;27.70;49.10
29501;DHT22;16450;50.288;10.966;2023-06-10T13:53:39;27.90;48.50
29501;DHT22;16450;50.288;10.966;2023-06-10T13:56:42;28.10;47.80
29501;DHT22;16450;50.288;10.966;2023-06-10T13:59:47;28.20;46.70
29501;DHT22;16450;50.288;10.966;2023-06-10T14:02:48;28.10;46.40
29501;DHT22;16450;50.288;10.966;2023-06-10T14:05:51;28.10;46.40
29501;DHT22;16450;50.288;10.966;2023-06-10T14:08:52;28.00;45.90
29501;DHT22;16450;50.288;10.966;2023-06-10T14:11:57;27.90;45.60
29501;DHT22;16450;50.288;10.966;2023-06-10T14:14:59;27.80;46.20
29501;DHT22;16450;50.288;10.966;2023-06-10T14:18:01;27.60;46.10
29501;DHT22;16450;50.288;10.966;2023-06-10T14:21:04;27.50;46.10
29501;DHT22;16450;50.288;10.966;2023-06-10T14:24:09;27.50;46.00
29501;DHT22;16450;50.288;10.966;2023-06-10T14:27:11;27.40;46.50
29501;DHT22;16450;50.288;10.966;2023-06-10T14:30:13;27.50;46.90
29501;DHT22;16450;50.288;10.966;2023-06-10T14:33:16;27.50;47.10
29501;DHT22;16450;50.288;10.966;2023-06-10T14:36:17;27.60;47.40
29501;DHT22;16450;50.288;10.966;2023-06-10T14:39:20;27.70;47.80
29501;DHT22;16450;50.288;10.966;2023-06-10T14:42:22;27.80;47.90
29501;DHT22;16450;50.288;10.966;2023-06-10T14:45:24;27.90;48.10
29501;DHT22;16450;50.288;10.966;2023-06-10T14:48:27;28.00;48.50
29501;DHT22;16450;50.288;10.966;2023-06-10T14:51:29;28.20;48.50
29501;DHT22;16450;50.288;10.966;2023-06-10T14:54:33;28.30;48.10
29501;DHT22;16450;50.288;10.966;2023-06-10T14:57:35;28.50;48.60
29501;DHT22;16450;50.288;10.966;2023-06-10T15:00:37;28.60;48.10
29501;DHT22;16450;50.288;10.966;2023-06-10T15:03:39;28.80;47.40
29501;DHT22;16450;50.288;10.966;2023-06-10T15:06:41;28.90;46.80
29501;DHT22;16450;50.288;10.966;2023-06-10T15:09:45;28.90;46.40
29501;DHT22;16450;50.288;10.966;2023-06-10T15:12:47;28.90;46.50
29501;DHT22;16450;50.288;10.966;2023-06-10T15:15:49;28.80;46.50
29501;DHT22;16450;50.288;10.966;2023-06-10T15:18:51;28.70;46.40
29501;DHT22;16450;50.288;10.966;2023-06-10T15:21:53;28.70;46.30
29501;DHT22;16450;50.288;10.966;2023-06-10T15:24:55;28.60;46.70
29501;DHT22;16450;50.288;10.966;2023-06-10T15:27:58;28.60;46.70
29501;DHT22;16450;50.288;10.966;2023-06-10T15:31:00;28.60;46.90
29501;DHT22;16450;50.288;10.966;2023-06-10T15:34:02;28.50;46.70
29501;DHT22;16450;50.288;10.966;2023-06-10T15:37:05;28.40;46.80
29501;DHT22;16450;50.288;10.966;2023-06-10T15:40:07;28.40;47.10
29501;DHT22;16450;50.288;10.966;2023-06-10T15:43:09;28.30;46.80
29501;DHT22;16450;50.288;10.966;2023-06-10T15:46:11;28.30;47.00
29501;DHT22;16450;50.288;10.966;2023-06-10T15:49:13;28.40;46.90
29501;DHT22;16450;50.288;10.966;2023-06-10T15:52:15;28.50;46.60
29501;DHT22;16450;50.288;10.966;2023-06-10T15:55:17;28.60;46.70
29501;DHT22;16450;50.288;10.966;2023-06-10T15:58:19;28.70;46.70
29501;DHT22;16450;50.288;10.966;2023-06-10T16:01:21;28.70;46.60
29501;DHT22;16450;50.288;10.966;2023-06-10T16:04:23;28.90;46.60
29501;DHT22;16450;50.288;10.966;2023-06-10T16:07:25;29.00;46.10
29501;DHT22;16450;50.288;10.966;2023-06-10T16:10:27;29.10;45.70
29501;DHT22;16450;50.288;10.966;2023-06-10T16:13:29;29.10;45.20
29501;DHT22;16450;50.288;10.966;2023-06-10T16:16:31;29.10;44.90
29501;DHT22;16450;50.288;10.966;2023-06-10T16:19:33;29.00;45.00
29501;DHT22;16450;50.288;10.966;2023-06-10T16:22:39;28.90;45.50
29501;DHT22;16450;50.288;10.966;2023-06-10T16:25:41;28.90;45.40
29501;DHT22;16450;50.288;10.966;2023-06-10T16:28:44;28.80;45.40
29501;DHT22;16450;50.288;10.966;2023-06-10T16:31:46;28.70;45.40
29501;DHT22;16450;50.288;10.966;2023-06-10T16:34:49;28.70;45.70
29501;DHT22;16450;50.288;10.966;2023-06-10T16:37:51;28.70;45.90
29501;DHT22;16450;50.288;10.966;2023-06-10T16:40:53;28.60;46.00
29501;DHT22;16450;50.288;10.966;2023-06-10T16:43:55;28.50;45.90
29501;DHT22;16450;50.288;10.966;2023-06-10T16:46:57;28.50;46.00
29501;DHT22;16450;50.288;10.966;2023-06-10T16:49:59;28.40;45.60
29501;DHT22;16450;50.288;10.966;2023-06-10T16:53:01;28.40;45.80
29501;DHT22;16450;50.288;10.966;2023-06-10T16:56:03;28.30;45.50
29501;DHT22;16450;50.288;10.966;2023-06-10T16:59:05;28.30;45.50
29501;DHT22;16450;50.288;10.966;2023-06-10T17:02:08;28.30;45.60
29501;DHT22;16450;50.288;10.966;2023-06-10T17:05:11;28.20;45.70
29501;DHT22;16450;50.288;10.966;2023-06-10T17:08:16;28.10;45.60
29501;DHT22;16450;50.288;10.966;2023-06-10T17:11:18;28.10;45.90
29501;DHT22;16450;50.288;10.966;2023-06-10T17:14:20;28.00;46.00
29501;DHT22;16450;50.288;10.966;2023-06-10T17:17:23;28.00;45.90
29501;DHT22;16450;50.288;10.966;2023-06-10T17:20:25;28.10;46.10
29501;DHT22;16450;50.288;10.966;2023-06-10T17:23:28;28.00;46.00
29501;DHT22;16450;50.288;10.966;2023-06-10T17:26:30;28.00;45.90
29501;DHT22;16450;50.288;10.966;2023-06-10T17:29:32;28.10;46.00
29501;DHT22;16450;50.288;10.966;2023-06-10T17:32:34;28.00;45.90
29501;DHT22;16450;50.288;10.966;2023-06-10T17:35:36;28.10;46.40
29501;DHT22;16450;50.288;10.966;2023-06-10T17:38:38;28.10;46.40
29501;DHT22;16450;50.288;10.966;2023-06-10T17:41:40;28.10;46.10
29501;DHT22;16450;50.288;10.966;2023-06-10T17:44:42;28.10;46.00
29501;DHT22;16450;50.288;10.966;2023-06-10T17:47:44;28.10;46.00
29501;DHT22;16450;50.288;10.966;2023-06-10T17:50:46;28.10;45.90
29501;DHT22;16450;50.288;10.966;2023-06-10T17:53:48;28.10;46.10
29501;DHT22;16450;50.288;10.966;2023-06-10T17:56:50;28.10;46.20
29501;DHT22;16450;50.288;10.966;2023-06-10T17:59:52;28.10;46.40
29501;DHT22;16450;50.288;10.966;2023-06-10T18:02:55;28.10;46.00
29501;DHT22;16450;50.288;10.966;2023-06-10T18:05:57;28.10;45.90
29501;DHT22;16450;50.288;10.966;2023-06-10T18:08:59;28.00;46.00
29501;DHT22;16450;50.288;10.966;2023-06-10T18:12:01;28.00;45.90
29501;DHT22;16450;50.288;10.966;2023-06-10T18:15:07;28.00;46.10
29501;DHT22;16450;50.288;10.966;2023-06-10T18:18:09;27.90;46.30
29501;DHT22;16450;50.288;10.966;2023-06-10T18:21:11;27.80;46.20
29501;DHT22;16450;50.288;10.966;2023-06-10T18:24:13;27.80;46.20
29501;DHT22;16450;50.288;10.966;2023-06-10T18:27:16;27.60;46.10
29501;DHT22;16450;50.288;10.966;2023-06-10T18:30:18;27.60;46.10
29501;DHT22;16450;50.288;10.966;2023-06-10T18:33:19;27.50;46.20
29501;DHT22;16450;50.288;10.966;2023-06-10T18:36:22;27.40;46.40
29501;DHT22;16450;50.288;10.966;2023-06-10T18:39:24;27.30;46.40
29501;DHT22;16450;50.288;10.966;2023-06-10T18:42:26;27.20;46.50
29501;DHT22;16450;50.288;10.966;2023-06-10T18:45:28;27.10;46.60
29501;DHT22;16450;50.288;10.966;2023-06-10T18:48:30;27.00;46.60
29501;DHT22;16450;50.288;10.966;2023-06-10T18:51:33;26.90;46.80
29501;DHT22;16450;50.288;10.966;2023-06-10T18:54:35;26.80;46.80
29501;DHT22;16450;50.288;10.966;2023-06-10T18:57:37;26.70;47.00
29501;DHT22;16450;50.288;10.966;2023-06-10T19:00:39;26.60;47.20
29501;DHT22;16450;50.288;10.966;2023-06-10T19:03:41;26.50;47.20
29501;DHT22;16450;50.288;10.966;2023-06-10T19:06:43;26.50;47.40
29501;DHT22;16450;50.288;10.966;2023-06-10T19:09:45;26.40;47.50
29501;DHT22;16450;50.288;10.966;2023-06-10T19:12:50;26.30;47.60
29501;DHT22;16450;50.288;10.966;2023-06-10T19:15:52;26.20;47.50